Time,TemperatureF,DewpointF,PressureIn,WindDirection,WindDirectionDegrees,WindSpeedMPH,WindSpeedGustMPH,Humidity,HourlyPrecipIn,Conditions,Clouds,dailyrainin,SoftwareType,DateUTC
2013-08-30 00:01:00,69.7,67.3,30.00,North,349,0.0,0.0,92,0.00,,---,0.00,VWS V14.01,2013-08-30 04:01:00,
2013-08-30 00:02:00,69.7,67.3,30.00,North,349,0.0,0.0,92,0.00,,---,0.00,VWS V14.01,2013-08-30 04:02:00,
2013-08-30 00:03:00,69.7,67.3,30.00,North,349,0.0,0.0,92,0.00,,---,0.00,VWS V14.01,2013-08-30 04:03:00,
2013-08-30 00:08:00,69.8,67.4,30.00,NNE,32,0.0,0.0,92,0.00,,---,0.00,VWS V14.01,2013-08-30 04:08:00,
2013-08-30 00:13:00,69.8,67.4,30.00,NNE,33,0.0,0.0,92,0.00,,---,0.00,VWS V14.01,2013-08-30 04:13:00,
2013-08-30 00:18:00,69.7,67.3,30.00,NNE,33,0.0,0.0,92,0.00,,---,0.00,VWS V14.01,2013-08-30 04:18:00,
2013-08-30 00:23:00,69.7,67.3,30.00,NNE,30,0.0,0.0,92,0.00,,---,0.00,VWS V14.01,2013-08-30 04:23:00,
2013-08-30 00:28:00,69.7,67.6,30.00,NE,56,1.0,1.0,93,0.00,,---,0.00,VWS V14.01,2013-08-30 04:28:00,
2013-08-30 00:33:00,69.6,67.5,30.00,NE,40,0.0,0.0,93,0.00,,---,0.00,VWS V14.01,2013-08-30 04:33:00,
2013-08-30 00:38:00,69.6,67.5,30.00,NE,40,0.0,0.0,93,0.00,,---,0.00,VWS V14.01,2013-08-30 04:38:00,
2013-08-30 00:43:00,69.5,67.4,29.99,NE,40,0.0,0.0,93,0.00,,---,0.00,VWS V14.01,2013-08-30 04:43:00,
2013-08-30 00:48:00,69.4,67.3,30.00,NE,41,0.0,0.0,93,0.00,,---,0.00,VWS V14.01,2013-08-30 04:48:00,
2013-08-30 00:53:00,69.4,67.3,30.00,NE,39,0.0,0.0,93,0.00,,---,0.00,VWS V14.01,2013-08-30 04:53:00,
2013-08-30 00:58:00,69.3,67.5,30.00,NE,49,0.0,0.0,94,0.00,,---,0.00,VWS V14.01,2013-08-30 04:58:00,
2013-08-30 01:03:00,69.2,67.4,30.00,NE,42,0.0,0.0,94,0.00,,---,0.00,VWS V14.01,2013-08-30 05:03:00,
2013-08-30 01:08:00,69.1,67.3,30.00,NE,39,0.0,0.0,94,0.00,,---,0.00,VWS V14.01,2013-08-30 05:08:00,
2013-08-30 01:13:00,69.0,67.2,30.00,NE,46,0.0,0.0,94,0.00,,---,0.00,VWS V14.01,2013-08-30 05:13:00,
2013-08-30 01:18:00,68.9,67.4,30.00,NE,40,0.0,0.0,95,0.00,,---,0.00,VWS V14.01,2013-08-30 05:18:00,
2013-08-30 01:23:00,68.8,67.3,30.00,NE,40,0.0,0.0,95,0.00,,---,0.00,VWS V14.01,2013-08-30 05:23:00,
2013-08-30 01:29:00,68.7,67.2,30.00,NE,42,0.0,0.0,95,0.00,,---,0.00,VWS V14.01,2013-08-30 05:29:00,
2013-08-30 01:34:00,68.6,67.1,30.00,NE,42,0.0,0.0,95,0.00,,---,0.00,VWS V14.01,2013-08-30 05:34:00,
2013-08-30 01:39:00,68.4,67.2,30.00,NE,46,0.0,0.0,96,0.00,,---,0.00,VWS V14.01,2013-08-30 05:39:00,
2013-08-30 01:44:00,68.3,67.1,29.99,NNE,33,0.0,0.0,96,0.00,,---,0.00,VWS V14.01,2013-08-30 05:44:00,
2013-08-30 01:49:00,68.2,67.0,29.99,NNE,32,0.0,0.0,96,0.00,,---,0.00,VWS V14.01,2013-08-30 05:49:00,
2013-08-30 01:54:00,68.1,66.9,29.99,NNE,18,0.0,0.0,96,0.00,,---,0.00,VWS V14.01,2013-08-30 05:54:00,
2013-08-30 01:59:00,68.1,66.9,29.99,North,355,0.0,0.0,96,0.00,,---,0.00,VWS V14.01,2013-08-30 05:59:00,
2013-08-30 02:04:00,68.2,67.0,30.00,North,356,0.0,0.0,96,0.00,,---,0.00,VWS V14.01,2013-08-30 06:04:00,
2013-08-30 02:09:00,68.2,67.0,30.00,North,355,0.0,0.0,96,0.00,,---,0.00,VWS V14.01,2013-08-30 06:09:00,
2013-08-30 02:14:00,68.2,67.0,29.99,North,355,0.0,0.0,96,0.00,,---,0.00,VWS V14.01,2013-08-30 06:14:00,
2013-08-30 02:19:00,68.3,67.1,29.99,North,357,0.0,0.0,96,0.00,,---,0.00,VWS V14.01,2013-08-30 06:19:00,
2013-08-30 02:24:00,68.2,67.0,29.99,North,355,0.0,0.0,96,0.00,,---,0.00,VWS V14.01,2013-08-30 06:24:00,
2013-08-30 02:29:00,68.1,66.9,29.99,North,356,0.0,0.0,96,0.00,,---,0.00,VWS V14.01,2013-08-30 06:29:00,
2013-08-30 02:34:00,68.0,66.8,29.99,North,355,0.0,0.0,96,0.00,,---,0.00,VWS V14.01,2013-08-30 06:34:00,
2013-08-30 02:39:00,67.9,66.7,29.99,North,355,0.0,0.0,96,0.00,,---,0.00,VWS V14.01,2013-08-30 06:39:00,
2013-08-30 02:44:00,67.9,66.7,29.99,North,356,0.0,0.0,96,0.00,,---,0.00,VWS V14.01,2013-08-30 06:44:00,
2013-08-30 02:50:00,67.8,66.9,29.98,North,356,0.0,0.0,97,0.00,,---,0.00,VWS V14.01,2013-08-30 06:50:00,
2013-08-30 02:55:00,67.8,66.9,29.98,NNE,13,0.0,0.0,97,0.00,,---,0.00,VWS V14.01,2013-08-30 06:55:00,
2013-08-30 03:00:00,67.7,66.8,29.99,NNE,12,0.0,0.0,97,0.00,,---,0.00,VWS V14.01,2013-08-30 07:00:00,
2013-08-30 03:05:00,67.7,66.8,29.99,North,5,0.0,0.0,97,0.00,,---,0.00,VWS V14.01,2013-08-30 07:05:00,
2013-08-30 03:10:00,67.5,66.6,29.99,NNE,30,0.0,0.0,97,0.00,,---,0.00,VWS V14.01,2013-08-30 07:10:00,
2013-08-30 03:15:00,67.3,66.4,29.99,NNE,30,0.0,0.0,97,0.00,,---,0.00,VWS V14.01,2013-08-30 07:15:00,
2013-08-30 03:20:00,67.2,66.3,29.99,NNE,30,0.0,0.0,97,0.00,,---,0.00,VWS V14.01,2013-08-30 07:20:00,
2013-08-30 03:25:00,67.2,66.3,29.99,North,359,0.0,0.0,97,0.00,,---,0.00,VWS V14.01,2013-08-30 07:25:00,
2013-08-30 03:30:00,67.1,66.2,29.99,North,358,0.0,0.0,97,0.00,,---,0.00,VWS V14.01,2013-08-30 07:30:00,
2013-08-30 03:35:00,67.1,66.2,29.99,North,356,0.0,0.0,97,0.00,,---,0.00,VWS V14.01,2013-08-30 07:35:00,
2013-08-30 03:40:00,67.0,66.1,29.99,North,358,0.0,0.0,97,0.00,,---,0.00,VWS V14.01,2013-08-30 07:40:00,
2013-08-30 03:45:00,67.1,66.5,29.99,North,359,0.0,0.0,98,0.00,,---,0.00,VWS V14.01,2013-08-30 07:45:00,
2013-08-30 03:50:00,67.2,66.6,29.99,North,359,0.0,0.0,98,0.00,,---,0.00,VWS V14.01,2013-08-30 07:50:00,
2013-08-30 03:55:00,67.1,66.5,29.99,North,358,0.0,0.0,98,0.00,,---,0.00,VWS V14.01,2013-08-30 07:55:00,
2013-08-30 04:01:00,67.0,66.4,30.00,North,358,0.0,0.0,98,0.00,,---,0.00,VWS V14.01,2013-08-30 08:01:00,
2013-08-30 04:06:00,67.0,66.4,30.00,North,358,0.0,0.0,98,0.00,,---,0.00,VWS V14.01,2013-08-30 08:06:00,
2013-08-30 04:11:00,66.8,66.2,30.00,North,358,0.0,0.0,98,0.00,,---,0.00,VWS V14.01,2013-08-30 08:11:00,
2013-08-30 04:16:00,66.7,66.1,30.00,North,358,0.0,0.0,98,0.00,,---,0.00,VWS V14.01,2013-08-30 08:16:00,
2013-08-30 04:21:00,66.6,66.0,29.99,North,359,0.0,0.0,98,0.00,,---,0.00,VWS V14.01,2013-08-30 08:21:00,
2013-08-30 04:26:00,66.5,65.9,30.00,North,359,0.0,0.0,98,0.00,,---,0.00,VWS V14.01,2013-08-30 08:26:00,
2013-08-30 04:31:00,66.5,65.9,30.00,North,358,0.0,0.0,98,0.00,,---,0.00,VWS V14.01,2013-08-30 08:31:00,
2013-08-30 04:36:00,66.4,65.8,29.99,North,359,0.0,0.0,98,0.00,,---,0.00,VWS V14.01,2013-08-30 08:36:00,
2013-08-30 04:41:00,66.4,65.8,29.99,North,359,0.0,0.0,98,0.00,,---,0.00,VWS V14.01,2013-08-30 08:41:00,
2013-08-30 04:46:00,66.3,65.7,29.99,North,358,0.0,0.0,98,0.00,,---,0.00,VWS V14.01,2013-08-30 08:46:00,
2013-08-30 04:51:00,66.3,65.7,29.99,North,359,0.0,0.0,98,0.00,,---,0.00,VWS V14.01,2013-08-30 08:51:00,
2013-08-30 04:56:00,66.3,65.7,29.99,North,359,0.0,0.0,98,0.00,,---,0.00,VWS V14.01,2013-08-30 08:56:00,
2013-08-30 05:01:00,66.2,65.6,29.99,North,359,0.0,0.0,98,0.00,,---,0.00,VWS V14.01,2013-08-30 09:01:00,
2013-08-30 05:07:00,66.2,65.6,29.99,North,358,0.0,0.0,98,0.00,,---,0.00,VWS V14.01,2013-08-30 09:07:00,
2013-08-30 05:12:00,66.2,65.6,29.99,North,359,0.0,0.0,98,0.00,,---,0.00,VWS V14.01,2013-08-30 09:12:00,
2013-08-30 05:17:00,66.1,65.5,29.99,North,358,0.0,0.0,98,0.00,,---,0.00,VWS V14.01,2013-08-30 09:17:00,
2013-08-30 05:22:00,66.1,65.5,29.98,North,359,0.0,0.0,98,0.00,,---,0.00,VWS V14.01,2013-08-30 09:22:00,
2013-08-30 05:27:00,66.0,65.4,29.98,North,359,0.0,0.0,98,0.00,,---,0.00,VWS V14.01,2013-08-30 09:27:00,
2013-08-30 05:32:00,66.0,65.4,29.98,North,358,0.0,0.0,98,0.00,,---,0.00,VWS V14.01,2013-08-30 09:32:00,
2013-08-30 05:37:00,65.9,65.3,29.98,North,358,0.0,0.0,98,0.00,,---,0.00,VWS V14.01,2013-08-30 09:37:00,
2013-08-30 05:42:00,66.0,65.4,29.98,North,358,0.0,0.0,98,0.00,,---,0.00,VWS V14.01,2013-08-30 09:42:00,
2013-08-30 05:47:00,65.9,65.3,29.99,North,358,0.0,0.0,98,0.00,,---,0.00,VWS V14.01,2013-08-30 09:47:00,
2013-08-30 05:52:00,65.8,65.2,29.99,North,359,0.0,0.0,98,0.00,,---,0.00,VWS V14.01,2013-08-30 09:52:00,
2013-08-30 05:57:00,65.7,65.1,29.99,North,358,0.0,0.0,98,0.00,,---,0.00,VWS V14.01,2013-08-30 09:57:00,
2013-08-30 06:02:00,65.6,65.0,29.99,North,359,0.0,0.0,98,0.00,,---,0.00,VWS V14.01,2013-08-30 10:02:00,
2013-08-30 06:07:00,65.4,64.8,29.99,North,358,0.0,0.0,98,0.00,,---,0.00,VWS V14.01,2013-08-30 10:07:00,
2013-08-30 06:12:00,65.4,64.8,29.99,North,1,0.0,0.0,98,0.00,,---,0.00,VWS V14.01,2013-08-30 10:12:00,
2013-08-30 06:17:00,65.3,64.7,29.99,North,1,0.0,0.0,98,0.00,,---,0.00,VWS V14.01,2013-08-30 10:17:00,
2013-08-30 06:22:00,65.3,64.7,29.99,North,1,0.0,0.0,98,0.00,,---,0.00,VWS V14.01,2013-08-30 10:22:00,
2013-08-30 06:27:00,65.3,64.7,29.99,North,1,0.0,0.0,98,0.00,,---,0.00,VWS V14.01,2013-08-30 10:27:00,
2013-08-30 06:33:00,65.5,65.2,29.99,North,6,0.0,0.0,99,0.00,,---,0.00,VWS V14.01,2013-08-30 10:33:00,
2013-08-30 06:38:00,65.5,65.2,29.99,North,6,0.0,0.0,99,0.00,,---,0.00,VWS V14.01,2013-08-30 10:38:00,
2013-08-30 06:43:00,65.4,64.8,30.00,North,8,0.0,0.0,98,0.00,,---,0.00,VWS V14.01,2013-08-30 10:43:00,
2013-08-30 06:48:00,65.2,64.6,30.00,North,8,0.0,0.0,98,0.00,,---,0.00,VWS V14.01,2013-08-30 10:48:00,
2013-08-30 06:53:00,65.1,64.5,30.00,North,8,0.0,0.0,98,0.00,,---,0.00,VWS V14.01,2013-08-30 10:53:00,
2013-08-30 06:58:00,65.1,64.5,30.00,NNE,18,0.0,0.0,98,0.00,,---,0.00,VWS V14.01,2013-08-30 10:58:00,
2013-08-30 07:03:00,65.2,64.9,30.00,NNE,18,0.0,0.0,99,0.00,,---,0.00,VWS V14.01,2013-08-30 11:03:00,
2013-08-30 07:08:00,65.2,64.9,30.00,NNE,18,0.0,0.0,99,0.00,,---,0.00,VWS V14.01,2013-08-30 11:08:00,
2013-08-30 07:13:00,65.4,65.1,30.00,NNE,18,0.0,0.0,99,0.00,,---,0.00,VWS V14.01,2013-08-30 11:13:00,
2013-08-30 07:18:00,65.4,65.1,30.00,NNE,18,0.0,0.0,99,0.00,,---,0.00,VWS V14.01,2013-08-30 11:18:00,
2013-08-30 07:23:00,65.5,65.2,30.00,NNE,18,0.0,0.0,99,0.00,,---,0.00,VWS V14.01,2013-08-30 11:23:00,
2013-08-30 07:28:00,65.6,65.3,30.00,NNE,18,0.0,0.0,99,0.00,,---,0.00,VWS V14.01,2013-08-30 11:28:00,
2013-08-30 07:34:00,65.7,65.4,30.00,NNE,19,0.0,0.0,99,0.00,,---,0.00,VWS V14.01,2013-08-30 11:34:00,
2013-08-30 07:39:00,65.8,65.5,30.00,NNE,18,0.0,0.0,99,0.00,,---,0.00,VWS V14.01,2013-08-30 11:39:00,
2013-08-30 07:44:00,66.2,65.9,30.00,NNE,18,0.0,0.0,99,0.00,,---,0.00,VWS V14.01,2013-08-30 11:44:00,
2013-08-30 07:49:00,66.2,65.9,30.00,NNE,18,0.0,0.0,99,0.00,,---,0.00,VWS V14.01,2013-08-30 11:49:00,
2013-08-30 07:54:00,66.2,65.9,30.00,NNE,20,0.0,0.0,99,0.00,,---,0.00,VWS V14.01,2013-08-30 11:54:00,
2013-08-30 07:59:00,66.3,66.0,30.00,NNE,24,0.0,0.0,99,0.00,,---,0.00,VWS V14.01,2013-08-30 11:59:00,
2013-08-30 08:04:00,66.3,66.0,30.01,NNE,25,0.0,0.0,99,0.00,,---,0.00,VWS V14.01,2013-08-30 12:04:00,
2013-08-30 08:09:00,66.3,66.0,30.01,NNE,25,0.0,0.0,99,0.00,,---,0.00,VWS V14.01,2013-08-30 12:09:00,
2013-08-30 08:14:00,66.4,66.1,30.01,NNE,24,0.0,0.0,99,0.00,,---,0.00,VWS V14.01,2013-08-30 12:14:00,
2013-08-30 08:19:00,66.5,66.2,30.01,NNE,24,0.0,0.0,99,0.00,,---,0.00,VWS V14.01,2013-08-30 12:19:00,
2013-08-30 08:24:00,66.6,66.3,30.01,NNE,25,0.0,0.0,99,0.00,,---,0.00,VWS V14.01,2013-08-30 12:24:00,
2013-08-30 08:29:00,66.7,66.4,30.01,NNE,25,0.0,0.0,99,0.00,,---,0.00,VWS V14.01,2013-08-30 12:29:00,
2013-08-30 08:34:00,66.8,66.5,30.01,NNE,24,0.0,0.0,99,0.00,,---,0.00,VWS V14.01,2013-08-30 12:34:00,
2013-08-30 08:39:00,66.8,66.5,30.01,NNE,25,0.0,0.0,99,0.00,,---,0.00,VWS V14.01,2013-08-30 12:39:00,
2013-08-30 08:44:00,66.9,66.6,30.02,NNE,25,0.0,0.0,99,0.00,,---,0.00,VWS V14.01,2013-08-30 12:44:00,
2013-08-30 08:49:00,67.0,66.7,30.02,NNE,24,0.0,0.0,99,0.00,,---,0.00,VWS V14.01,2013-08-30 12:49:00,
2013-08-30 08:54:00,67.2,66.9,30.02,NNE,25,0.0,0.0,99,0.00,,---,0.00,VWS V14.01,2013-08-30 12:54:00,
2013-08-30 08:59:00,67.2,66.9,30.02,NNE,26,0.0,0.0,99,0.00,,---,0.00,VWS V14.01,2013-08-30 12:59:00,
2013-08-30 09:04:00,67.2,66.9,30.02,NNE,25,0.0,0.0,99,0.00,,---,0.00,VWS V14.01,2013-08-30 13:04:00,
2013-08-30 09:09:00,67.4,67.1,30.02,NNE,25,0.0,0.0,99,0.00,,---,0.00,VWS V14.01,2013-08-30 13:09:00,
2013-08-30 09:14:00,67.5,67.2,30.02,NNE,29,0.0,0.0,99,0.00,,---,0.00,VWS V14.01,2013-08-30 13:14:00,
2013-08-30 09:19:00,67.6,67.3,30.02,NNE,20,0.0,0.0,99,0.00,,---,0.00,VWS V14.01,2013-08-30 13:19:00,
2013-08-30 09:24:00,67.7,67.4,30.02,NNE,20,0.0,0.0,99,0.00,,---,0.00,VWS V14.01,2013-08-30 13:24:00,
2013-08-30 09:30:00,67.8,67.5,30.01,NNE,30,0.0,0.0,99,0.00,,---,0.00,VWS V14.01,2013-08-30 13:30:00,
2013-08-30 09:35:00,67.9,67.6,30.01,NNE,30,0.0,0.0,99,0.00,,---,0.00,VWS V14.01,2013-08-30 13:35:00,
2013-08-30 09:40:00,67.9,67.6,30.02,NNE,30,0.0,0.0,99,0.00,,---,0.00,VWS V14.01,2013-08-30 13:40:00,
2013-08-30 09:45:00,68.0,67.7,30.02,NNE,29,0.0,0.0,99,0.00,,---,0.00,VWS V14.01,2013-08-30 13:45:00,
2013-08-30 09:50:00,68.2,67.9,30.02,NNE,29,0.0,0.0,99,0.00,,---,0.00,VWS V14.01,2013-08-30 13:50:00,
2013-08-30 09:55:00,68.4,68.1,30.01,NNE,29,0.0,0.0,99,0.00,,---,0.00,VWS V14.01,2013-08-30 13:55:00,
2013-08-30 10:00:00,68.7,68.4,30.01,NNE,24,0.0,0.0,99,0.00,,---,0.00,VWS V14.01,2013-08-30 14:00:00,
2013-08-30 10:05:00,68.9,68.6,30.01,NNE,29,0.0,0.0,99,0.00,,---,0.00,VWS V14.01,2013-08-30 14:05:00,
2013-08-30 10:10:00,69.2,68.9,30.01,NNE,30,0.0,0.0,99,0.00,,---,0.00,VWS V14.01,2013-08-30 14:10:00,
2013-08-30 10:15:00,69.5,69.2,30.01,NNE,26,0.0,0.0,99,0.00,,---,0.00,VWS V14.01,2013-08-30 14:15:00,
2013-08-30 10:20:00,69.8,69.5,30.00,NNE,30,0.0,0.0,99,0.00,,---,0.00,VWS V14.01,2013-08-30 14:20:00,
2013-08-30 10:25:00,70.2,69.9,30.00,NNE,32,0.0,0.0,99,0.00,,---,0.00,VWS V14.01,2013-08-30 14:25:00,
2013-08-30 10:30:00,70.5,69.9,30.00,NE,34,1.0,1.0,98,0.00,,---,0.00,VWS V14.01,2013-08-30 14:30:00,
2013-08-30 10:35:00,71.1,70.2,30.00,NNE,32,1.0,1.0,97,0.00,,---,0.00,VWS V14.01,2013-08-30 14:35:00,
2013-08-30 10:40:00,71.5,70.0,30.00,NNE,26,0.0,0.0,95,0.00,,---,0.00,VWS V14.01,2013-08-30 14:40:00,
2013-08-30 10:45:00,72.0,70.2,30.00,NNE,33,0.0,0.0,94,0.00,,---,0.00,VWS V14.01,2013-08-30 14:45:00,
2013-08-30 10:51:00,72.5,70.7,30.00,NNE,30,1.0,1.0,94,0.00,,---,0.00,VWS V14.01,2013-08-30 14:51:00,
2013-08-30 10:56:00,72.8,70.7,30.00,NNE,18,0.0,1.0,93,0.00,,---,0.00,VWS V14.01,2013-08-30 14:56:00,
2013-08-30 11:01:00,73.2,71.1,30.00,NE,39,1.0,2.0,93,0.00,,---,0.00,VWS V14.01,2013-08-30 15:01:00,
2013-08-30 11:06:00,73.5,70.7,30.00,NNE,18,1.0,1.0,91,0.00,,---,0.00,VWS V14.01,2013-08-30 15:06:00,
2013-08-30 11:11:00,74.1,71.6,30.00,NNE,33,0.0,0.0,92,0.00,,---,0.00,VWS V14.01,2013-08-30 15:11:00,
2013-08-30 11:16:00,74.5,71.4,30.00,NNE,32,1.0,1.0,90,0.00,,---,0.00,VWS V14.01,2013-08-30 15:16:00,
2013-08-30 11:21:00,74.8,71.7,30.00,NNE,26,0.0,0.0,90,0.00,,---,0.00,VWS V14.01,2013-08-30 15:21:00,
2013-08-30 11:26:00,75.3,72.5,30.00,NNE,32,0.0,0.0,91,0.00,,---,0.00,VWS V14.01,2013-08-30 15:26:00,
2013-08-30 11:31:00,75.7,71.9,30.00,NNE,30,1.0,1.0,88,0.00,,---,0.00,VWS V14.01,2013-08-30 15:31:00,
2013-08-30 11:36:00,76.0,72.2,30.00,NNE,29,0.0,0.0,88,0.00,,---,0.00,VWS V14.01,2013-08-30 15:36:00,
2013-08-30 11:42:00,76.2,72.4,30.00,NNE,29,0.0,0.0,88,0.00,,---,0.00,VWS V14.01,2013-08-30 15:42:00,
2013-08-30 11:47:00,76.4,71.6,29.99,North,354,0.0,1.0,85,0.00,,---,0.00,VWS V14.01,2013-08-30 15:47:00,
2013-08-30 11:52:00,76.8,71.6,29.99,NNE,16,0.0,1.0,84,0.00,,---,0.00,VWS V14.01,2013-08-30 15:52:00,
2013-08-30 11:57:00,77.1,70.8,29.99,ESE,104,0.0,3.0,81,0.00,,---,0.00,VWS V14.01,2013-08-30 15:57:00,
2013-08-30 12:02:00,77.4,71.8,29.99,NE,56,0.0,0.0,83,0.00,,---,0.00,VWS V14.01,2013-08-30 16:02:00,
2013-08-30 12:07:00,77.9,72.7,29.99,ENE,57,0.0,0.0,84,0.00,,---,0.00,VWS V14.01,2013-08-30 16:07:00,
2013-08-30 12:13:00,78.0,72.4,29.99,NE,43,0.0,0.0,83,0.00,,---,0.00,VWS V14.01,2013-08-30 16:13:00,
2013-08-30 12:18:00,78.3,72.0,29.98,ENE,65,0.0,0.0,81,0.00,,---,0.00,VWS V14.01,2013-08-30 16:18:00,
2013-08-30 12:23:00,78.4,71.7,29.98,ENE,65,0.0,1.0,80,0.00,,---,0.00,VWS V14.01,2013-08-30 16:23:00,
2013-08-30 12:28:00,78.7,72.4,29.98,ENE,60,0.0,1.0,81,0.00,,---,0.00,VWS V14.01,2013-08-30 16:28:00,
2013-08-30 12:33:00,79.1,71.3,29.98,NE,53,0.0,2.0,77,0.00,,---,0.00,VWS V14.01,2013-08-30 16:33:00,
2013-08-30 12:38:00,79.7,71.9,29.98,NNE,29,1.0,1.0,77,0.00,,---,0.00,VWS V14.01,2013-08-30 16:38:00,
2013-08-30 12:43:00,80.3,73.2,29.97,NE,46,0.0,0.0,79,0.00,,---,0.00,VWS V14.01,2013-08-30 16:43:00,
2013-08-30 12:48:00,80.8,73.3,29.97,ENE,72,0.0,0.0,78,0.00,,---,0.00,VWS V14.01,2013-08-30 16:48:00,
2013-08-30 12:53:00,81.4,73.5,29.97,NE,39,0.0,0.0,77,0.00,,---,0.00,VWS V14.01,2013-08-30 16:53:00,
2013-08-30 12:58:00,81.7,73.8,29.97,NNE,25,0.0,1.0,77,0.00,,---,0.00,VWS V14.01,2013-08-30 16:58:00,
2013-08-30 13:03:00,81.8,73.5,29.97,ENE,75,1.0,1.0,76,0.00,,---,0.00,VWS V14.01,2013-08-30 17:03:00,
2013-08-30 13:08:00,81.9,72.0,29.96,NNE,15,0.0,2.0,72,0.00,,---,0.00,VWS V14.01,2013-08-30 17:08:00,
2013-08-30 13:13:00,82.1,72.2,29.96,NNE,23,0.0,4.0,72,0.00,,---,0.00,VWS V14.01,2013-08-30 17:13:00,
2013-08-30 13:18:00,81.9,72.0,29.96,NNE,30,0.0,1.0,72,0.00,,---,0.00,VWS V14.01,2013-08-30 17:18:00,
2013-08-30 13:23:00,81.6,71.7,29.96,NNE,12,0.0,1.0,72,0.00,,---,0.00,VWS V14.01,2013-08-30 17:23:00,
2013-08-30 13:28:00,81.8,71.5,29.95,ENE,77,1.0,1.0,71,0.00,,---,0.00,VWS V14.01,2013-08-30 17:28:00,
2013-08-30 13:34:00,81.7,72.2,29.95,NE,43,0.0,0.0,73,0.00,,---,0.00,VWS V14.01,2013-08-30 17:34:00,
2013-08-30 13:39:00,82.0,72.9,29.95,NE,38,0.0,0.0,74,0.00,,---,0.00,VWS V14.01,2013-08-30 17:39:00,
2013-08-30 13:44:00,81.9,73.2,29.95,ENE,77,1.0,1.0,75,0.00,,---,0.00,VWS V14.01,2013-08-30 17:44:00,
2013-08-30 13:49:00,81.8,73.5,29.95,NE,51,0.0,0.0,76,0.00,,---,0.00,VWS V14.01,2013-08-30 17:49:00,
2013-08-30 13:54:00,81.7,73.4,29.94,NE,39,0.0,0.0,76,0.00,,---,0.00,VWS V14.01,2013-08-30 17:54:00,
2013-08-30 13:59:00,81.7,73.4,29.94,NE,38,1.0,1.0,76,0.00,,---,0.00,VWS V14.01,2013-08-30 17:59:00,
2013-08-30 14:04:00,81.4,73.5,29.94,NE,46,0.0,0.0,77,0.00,,---,0.00,VWS V14.01,2013-08-30 18:04:00,
2013-08-30 14:09:00,81.4,73.1,29.94,NE,42,0.0,0.0,76,0.00,,---,0.00,VWS V14.01,2013-08-30 18:09:00,
2013-08-30 14:14:00,81.2,72.1,29.94,NNE,18,0.0,1.0,74,0.00,,---,0.00,VWS V14.01,2013-08-30 18:14:00,
2013-08-30 14:19:00,81.4,72.7,29.94,NE,43,0.0,1.0,75,0.00,,---,0.00,VWS V14.01,2013-08-30 18:19:00,
2013-08-30 14:24:00,81.4,72.7,29.94,ESE,103,2.0,2.0,75,0.00,,---,0.00,VWS V14.01,2013-08-30 18:24:00,
2013-08-30 14:29:00,80.9,72.2,29.94,ENE,59,0.0,1.0,75,0.00,,---,0.00,VWS V14.01,2013-08-30 18:29:00,
2013-08-30 14:34:00,80.8,71.7,29.94,NE,40,0.0,0.0,74,0.00,,---,0.00,VWS V14.01,2013-08-30 18:34:00,
2013-08-30 14:40:00,81.2,73.3,29.93,NE,47,0.0,0.0,77,0.00,,---,0.00,VWS V14.01,2013-08-30 18:40:00,
2013-08-30 14:45:00,81.2,72.1,29.93,NNE,23,0.0,1.0,74,0.00,,---,0.00,VWS V14.01,2013-08-30 18:45:00,
2013-08-30 14:50:00,81.3,71.4,29.93,NNE,20,0.0,0.0,72,0.00,,---,0.00,VWS V14.01,2013-08-30 18:50:00,
2013-08-30 14:55:00,81.5,72.4,29.93,NE,34,0.0,0.0,74,0.00,,---,0.00,VWS V14.01,2013-08-30 18:55:00,
2013-08-30 15:00:00,81.7,73.0,29.93,NNE,25,0.0,0.0,75,0.00,,---,0.00,VWS V14.01,2013-08-30 19:00:00,
2013-08-30 15:05:00,81.7,71.8,29.93,ENE,70,0.0,2.0,72,0.00,,---,0.00,VWS V14.01,2013-08-30 19:05:00,
2013-08-30 15:10:00,81.4,73.1,29.92,ENE,75,0.0,0.0,76,0.00,,---,0.00,VWS V14.01,2013-08-30 19:10:00,
2013-08-30 15:15:00,81.0,71.9,29.92,ENE,60,0.0,2.0,74,0.00,,---,0.00,VWS V14.01,2013-08-30 19:15:00,
2013-08-30 15:20:00,81.0,72.7,29.92,East,83,0.0,0.0,76,0.00,,---,0.00,VWS V14.01,2013-08-30 19:20:00,
2013-08-30 15:25:00,80.8,73.3,29.92,East,86,1.0,1.0,78,0.00,,---,0.00,VWS V14.01,2013-08-30 19:25:00,
2013-08-30 15:30:00,80.5,73.4,29.91,East,81,0.0,0.0,79,0.00,,---,0.00,VWS V14.01,2013-08-30 19:30:00,
2013-08-30 15:35:00,80.5,72.6,29.91,NE,53,0.0,0.0,77,0.00,,---,0.00,VWS V14.01,2013-08-30 19:35:00,
2013-08-30 15:40:00,80.3,71.7,29.91,NE,49,0.0,1.0,75,0.00,,---,0.00,VWS V14.01,2013-08-30 19:40:00,
2013-08-30 15:45:00,80.5,71.8,29.91,NE,50,0.0,0.0,75,0.00,,---,0.00,VWS V14.01,2013-08-30 19:45:00,
2013-08-30 15:50:00,80.5,72.6,29.91,ENE,58,0.0,0.0,77,0.00,,---,0.00,VWS V14.01,2013-08-30 19:50:00,
2013-08-30 15:55:00,80.4,72.2,29.91,NE,49,0.0,0.0,76,0.00,,---,0.00,VWS V14.01,2013-08-30 19:55:00,
2013-08-30 16:00:00,80.1,72.2,29.91,ENE,75,0.0,0.0,77,0.00,,---,0.00,VWS V14.01,2013-08-30 20:00:00,
2013-08-30 16:05:00,79.9,72.1,29.91,NE,44,0.0,0.0,77,0.00,,---,0.00,VWS V14.01,2013-08-30 20:05:00,
2013-08-30 16:10:00,79.8,71.9,29.91,NE,46,0.0,0.0,77,0.00,,---,0.00,VWS V14.01,2013-08-30 20:10:00,
2013-08-30 16:15:00,79.7,71.9,29.91,NE,43,0.0,0.0,77,0.00,,---,0.00,VWS V14.01,2013-08-30 20:15:00,
2013-08-30 16:20:00,79.5,72.0,29.91,NE,42,0.0,0.0,78,0.00,,---,0.00,VWS V14.01,2013-08-30 20:20:00,
2013-08-30 16:25:00,79.3,71.8,29.91,NE,47,0.0,0.0,78,0.00,,---,0.00,VWS V14.01,2013-08-30 20:25:00,
2013-08-30 16:30:00,79.2,71.8,29.91,NE,47,0.0,0.0,78,0.00,,---,0.00,VWS V14.01,2013-08-30 20:30:00,
2013-08-30 16:35:00,79.2,72.1,29.91,NE,46,0.0,0.0,79,0.00,,---,0.00,VWS V14.01,2013-08-30 20:35:00,
2013-08-30 16:40:00,79.4,72.3,29.90,NE,46,0.0,0.0,79,0.00,,---,0.00,VWS V14.01,2013-08-30 20:40:00,
2013-08-30 16:45:00,79.3,72.2,29.90,NE,44,0.0,0.0,79,0.00,,---,0.00,VWS V14.01,2013-08-30 20:45:00,
2013-08-30 16:50:00,79.1,71.7,29.91,NE,39,0.0,0.0,78,0.00,,---,0.00,VWS V14.01,2013-08-30 20:50:00,
2013-08-30 16:55:00,79.0,71.9,29.90,NE,53,0.0,0.0,79,0.00,,---,0.00,VWS V14.01,2013-08-30 20:55:00,
2013-08-30 17:00:00,79.0,71.9,29.90,ENE,63,0.0,0.0,79,0.00,,---,0.00,VWS V14.01,2013-08-30 21:00:00,
2013-08-30 17:05:00,79.1,72.0,29.90,ENE,63,0.0,0.0,79,0.00,,---,0.00,VWS V14.01,2013-08-30 21:05:00,
2013-08-30 17:10:00,79.5,72.0,29.90,NE,53,0.0,0.0,78,0.00,,---,0.00,VWS V14.01,2013-08-30 21:10:00,
2013-08-30 17:15:00,79.9,72.1,29.89,NNE,32,0.0,1.0,77,0.00,,---,0.00,VWS V14.01,2013-08-30 21:15:00,
2013-08-30 17:20:00,80.1,71.9,29.89,East,81,0.0,1.0,76,0.00,,---,0.00,VWS V14.01,2013-08-30 21:20:00,
2013-08-30 17:25:00,80.1,71.1,29.89,NE,40,0.0,1.0,74,0.00,,---,0.00,VWS V14.01,2013-08-30 21:25:00,
2013-08-30 17:30:00,79.9,71.7,29.89,NNE,25,0.0,1.0,76,0.00,,---,0.00,VWS V14.01,2013-08-30 21:30:00,
2013-08-30 17:35:00,79.5,72.0,29.89,NNE,30,0.0,0.0,78,0.00,,---,0.00,VWS V14.01,2013-08-30 21:35:00,
2013-08-30 17:40:00,78.9,71.8,29.89,NNE,30,0.0,0.0,79,0.00,,---,0.00,VWS V14.01,2013-08-30 21:40:00,
2013-08-30 17:45:00,78.4,71.3,29.89,NNE,30,0.0,0.0,79,0.00,,---,0.00,VWS V14.01,2013-08-30 21:45:00,
2013-08-30 17:50:00,78.0,71.3,29.88,NNE,30,0.0,0.0,80,0.00,,---,0.00,VWS V14.01,2013-08-30 21:50:00,
2013-08-30 17:55:00,77.6,71.7,29.88,NNE,30,0.0,0.0,82,0.00,,---,0.00,VWS V14.01,2013-08-30 21:55:00,
2013-08-30 18:00:00,77.3,71.7,29.88,NNE,30,0.0,0.0,83,0.00,,---,0.00,VWS V14.01,2013-08-30 22:00:00,
2013-08-30 18:05:00,77.0,71.4,29.88,NNE,30,0.0,0.0,83,0.00,,---,0.00,VWS V14.01,2013-08-30 22:05:00,
2013-08-30 18:10:00,76.8,71.6,29.88,NNE,30,0.0,0.0,84,0.00,,---,0.00,VWS V14.01,2013-08-30 22:10:00,
2013-08-30 18:15:00,76.6,71.8,29.88,NNE,30,0.0,0.0,85,0.00,,---,0.00,VWS V14.01,2013-08-30 22:15:00,
2013-08-30 18:20:00,76.4,71.6,29.88,NNE,30,0.0,0.0,85,0.00,,---,0.00,VWS V14.01,2013-08-30 22:20:00,
2013-08-30 18:25:00,76.2,71.7,29.88,NNE,30,0.0,0.0,86,0.00,,---,0.00,VWS V14.01,2013-08-30 22:25:00,
2013-08-30 18:30:00,76.0,71.5,29.88,NNE,30,0.0,0.0,86,0.00,,---,0.00,VWS V14.01,2013-08-30 22:30:00,
2013-08-30 18:35:00,75.8,71.3,29.87,NNE,30,0.0,0.0,86,0.00,,---,0.00,VWS V14.01,2013-08-30 22:35:00,
2013-08-30 18:40:00,75.7,71.6,29.87,NNE,30,0.0,0.0,87,0.00,,---,0.00,VWS V14.01,2013-08-30 22:40:00,
2013-08-30 18:45:00,75.5,71.4,29.87,NNE,30,0.0,0.0,87,0.00,,---,0.00,VWS V14.01,2013-08-30 22:45:00,
2013-08-30 18:50:00,75.4,71.3,29.87,NE,37,0.0,0.0,87,0.00,,---,0.00,VWS V14.01,2013-08-30 22:50:00,
2013-08-30 18:55:00,75.3,71.2,29.87,NE,39,0.0,0.0,87,0.00,,---,0.00,VWS V14.01,2013-08-30 22:55:00,
2013-08-30 19:00:00,75.2,71.1,29.87,NE,36,0.0,0.0,87,0.00,,---,0.00,VWS V14.01,2013-08-30 23:00:00,
2013-08-30 19:05:00,75.1,71.3,29.87,NE,35,0.0,0.0,88,0.00,,---,0.00,VWS V14.01,2013-08-30 23:05:00,
2013-08-30 19:11:00,74.9,71.1,29.87,NE,35,0.0,0.0,88,0.00,,---,0.00,VWS V14.01,2013-08-30 23:11:00,
2013-08-30 19:16:00,74.7,70.9,29.87,NE,35,0.0,0.0,88,0.00,,---,0.00,VWS V14.01,2013-08-30 23:16:00,
2013-08-30 19:21:00,74.6,71.2,29.87,NE,40,0.0,0.0,89,0.00,,---,0.00,VWS V14.01,2013-08-30 23:21:00,
2013-08-30 19:26:00,74.4,70.9,29.87,NE,40,0.0,0.0,89,0.00,,---,0.00,VWS V14.01,2013-08-30 23:26:00,
2013-08-30 19:31:00,74.3,70.8,29.86,NE,40,0.0,0.0,89,0.00,,---,0.00,VWS V14.01,2013-08-30 23:31:00,
2013-08-30 19:36:00,74.2,71.1,29.86,NE,43,0.0,0.0,90,0.00,,---,0.00,VWS V14.01,2013-08-30 23:36:00,
2013-08-30 19:41:00,74.0,70.9,29.86,NE,42,0.0,0.0,90,0.00,,---,0.00,VWS V14.01,2013-08-30 23:41:00,
2013-08-30 19:46:00,73.8,70.7,29.86,NE,50,0.0,0.0,90,0.00,,---,0.00,VWS V14.01,2013-08-30 23:46:00,
2013-08-30 19:52:00,73.6,70.8,29.86,NE,50,0.0,0.0,91,0.00,,---,0.00,VWS V14.01,2013-08-30 23:52:00,
2013-08-30 19:57:00,73.4,70.6,29.86,NE,51,0.0,0.0,91,0.00,,---,0.00,VWS V14.01,2013-08-30 23:57:00,
2013-08-30 20:02:00,73.2,70.4,29.86,NE,52,0.0,0.0,91,0.00,,---,0.00,VWS V14.01,2013-08-31 00:02:00,
2013-08-30 20:07:00,73.1,70.3,29.86,NE,55,0.0,1.0,91,0.00,,---,0.00,VWS V14.01,2013-08-31 00:07:00,
2013-08-30 20:12:00,72.9,70.1,29.86,NE,56,0.0,0.0,91,0.00,,---,0.00,VWS V14.01,2013-08-31 00:12:00,
2013-08-30 20:17:00,72.8,70.3,29.86,ENE,63,0.0,1.0,92,0.00,,---,0.00,VWS V14.01,2013-08-31 00:17:00,
2013-08-30 20:22:00,72.7,70.2,29.86,ENE,77,0.0,0.0,92,0.00,,---,0.00,VWS V14.01,2013-08-31 00:22:00,
2013-08-30 20:27:00,72.5,70.1,29.86,ENE,78,0.0,1.0,92,0.00,,---,0.00,VWS V14.01,2013-08-31 00:27:00,
2013-08-30 20:32:00,72.4,69.9,29.86,East,82,0.0,0.0,92,0.00,,---,0.00,VWS V14.01,2013-08-31 00:32:00,
2013-08-30 20:38:00,72.3,69.8,29.86,East,84,0.0,0.0,92,0.00,,---,0.00,VWS V14.01,2013-08-31 00:38:00,
2013-08-30 20:43:00,72.2,70.1,29.86,East,98,0.0,0.0,93,0.00,,---,0.00,VWS V14.01,2013-08-31 00:43:00,
2013-08-30 20:48:00,72.1,70.0,29.86,East,84,0.0,0.0,93,0.00,,---,0.00,VWS V14.01,2013-08-31 00:48:00,
2013-08-30 20:53:00,71.9,69.8,29.86,East,82,0.0,1.0,93,0.00,,---,0.00,VWS V14.01,2013-08-31 00:53:00,
2013-08-30 20:58:00,71.8,69.7,29.86,East,97,0.0,0.0,93,0.00,,---,0.00,VWS V14.01,2013-08-31 00:58:00,
2013-08-30 21:03:00,71.8,69.7,29.87,East,101,0.0,0.0,93,0.00,,---,0.00,VWS V14.01,2013-08-31 01:03:00,
2013-08-30 21:08:00,71.8,69.7,29.87,ENE,67,0.0,0.0,93,0.00,,---,0.00,VWS V14.01,2013-08-31 01:08:00,
2013-08-30 21:13:00,71.7,69.6,29.87,East,89,0.0,0.0,93,0.00,,---,0.00,VWS V14.01,2013-08-31 01:13:00,
2013-08-30 21:18:00,71.6,69.5,29.87,East,85,0.0,0.0,93,0.00,,---,0.00,VWS V14.01,2013-08-31 01:18:00,
2013-08-30 21:23:00,71.5,69.4,29.88,East,87,0.0,0.0,93,0.00,,---,0.00,VWS V14.01,2013-08-31 01:23:00,
2013-08-30 21:28:00,71.4,69.6,29.88,ENE,66,0.0,1.0,94,0.00,,---,0.00,VWS V14.01,2013-08-31 01:28:00,
2013-08-30 21:33:00,71.4,69.6,29.88,East,98,0.0,1.0,94,0.00,,---,0.00,VWS V14.01,2013-08-31 01:33:00,
2013-08-30 21:38:00,71.3,69.5,29.88,ESE,103,0.0,0.0,94,0.00,,---,0.00,VWS V14.01,2013-08-31 01:38:00,
2013-08-30 21:44:00,71.2,69.4,29.88,ESE,108,0.0,0.0,94,0.00,,---,0.00,VWS V14.01,2013-08-31 01:44:00,
2013-08-30 21:49:00,71.1,69.3,29.88,ESE,114,0.0,0.0,94,0.00,,---,0.00,VWS V14.01,2013-08-31 01:49:00,
2013-08-30 21:54:00,71.1,69.3,29.88,ESE,123,0.0,0.0,94,0.00,,---,0.00,VWS V14.01,2013-08-31 01:54:00,
2013-08-30 21:59:00,71.0,69.5,29.88,ESE,122,0.0,0.0,95,0.00,,---,0.00,VWS V14.01,2013-08-31 01:59:00,
2013-08-30 22:04:00,70.9,69.4,29.88,ESE,114,0.0,0.0,95,0.00,,---,0.00,VWS V14.01,2013-08-31 02:04:00,
2013-08-30 22:09:00,70.9,69.4,29.89,ESE,115,1.0,1.0,95,0.00,,---,0.00,VWS V14.01,2013-08-31 02:09:00,
2013-08-30 22:14:00,70.9,69.4,29.89,ESE,112,0.0,0.0,95,0.00,,---,0.00,VWS V14.01,2013-08-31 02:14:00,
2013-08-30 22:19:00,70.9,69.4,29.89,East,96,0.0,0.0,95,0.00,,---,0.00,VWS V14.01,2013-08-31 02:19:00,
2013-08-30 22:24:00,70.8,69.3,29.89,ENE,73,1.0,4.0,95,0.00,,---,0.00,VWS V14.01,2013-08-31 02:24:00,
2013-08-30 22:29:00,71.0,69.2,29.89,SE,143,0.0,0.0,94,0.00,,---,0.00,VWS V14.01,2013-08-31 02:29:00,
2013-08-30 22:34:00,71.0,69.2,29.88,ESE,107,0.0,2.0,94,0.00,,---,0.00,VWS V14.01,2013-08-31 02:34:00,
2013-08-30 22:39:00,71.1,69.3,29.89,ESE,107,0.0,1.0,94,0.00,,---,0.00,VWS V14.01,2013-08-31 02:39:00,
2013-08-30 22:44:00,71.1,69.3,29.88,East,95,0.0,1.0,94,0.00,,---,0.00,VWS V14.01,2013-08-31 02:44:00,
2013-08-30 22:49:00,71.0,69.2,29.88,ESE,107,1.0,2.0,94,0.00,,---,0.00,VWS V14.01,2013-08-31 02:49:00,
2013-08-30 22:54:00,71.0,69.2,29.88,ESE,106,0.0,0.0,94,0.00,,---,0.00,VWS V14.01,2013-08-31 02:54:00,
2013-08-30 23:00:00,70.9,69.1,29.88,SE,141,0.0,0.0,94,0.00,,---,0.00,VWS V14.01,2013-08-31 03:00:00,
2013-08-30 23:05:00,70.8,69.0,29.88,ESE,103,0.0,0.0,94,0.00,,---,0.00,VWS V14.01,2013-08-31 03:05:00,
2013-08-30 23:10:00,70.9,69.1,29.88,ENE,75,0.0,1.0,94,0.00,,---,0.00,VWS V14.01,2013-08-31 03:10:00,
2013-08-30 23:15:00,70.9,69.1,29.88,ENE,63,1.0,2.0,94,0.00,,---,0.00,VWS V14.01,2013-08-31 03:15:00,
2013-08-30 23:20:00,71.0,69.2,29.88,NNW,335,0.0,0.0,94,0.00,,---,0.00,VWS V14.01,2013-08-31 03:20:00,
2013-08-30 23:25:00,71.1,69.3,29.88,NNW,338,0.0,0.0,94,0.00,,---,0.00,VWS V14.01,2013-08-31 03:25:00,
2013-08-30 23:30:00,71.1,69.3,29.88,ENE,73,0.0,0.0,94,0.00,,---,0.00,VWS V14.01,2013-08-31 03:30:00,
2013-08-30 23:35:00,71.0,69.2,29.87,East,89,0.0,0.0,94,0.00,,---,0.00,VWS V14.01,2013-08-31 03:35:00,
2013-08-30 23:41:00,71.0,69.2,29.87,ENE,71,0.0,0.0,94,0.00,,---,0.00,VWS V14.01,2013-08-31 03:41:00,
2013-08-30 23:46:00,71.1,69.3,29.87,North,351,0.0,0.0,94,0.00,,---,0.00,VWS V14.01,2013-08-31 03:46:00,
2013-08-30 23:51:00,71.0,69.2,29.87,NE,56,0.0,0.0,94,0.00,,---,0.00,VWS V14.01,2013-08-31 03:51:00,
2013-08-30 23:56:00,71.1,69.3,29.87,NE,34,0.0,0.0,94,0.00,,---,0.00,VWS V14.01,2013-08-31 03:56:00,